Terminal Aerodrome Forecast
Issued by NWS

Home | Current Version | Previous Version | Text Only | Print | Product List | Glossary On
Versions: 1 2 3 4 5 6 7 8 9 10 11 12 13
000
FTUS44 KJAN 291400 AAA
TAFHKS
TAF AMD
KHKS 291412Z 2914/3012 01004KT 3SM -DZ BR OVC005
     FM291800 35005KT P6SM OVC007
     FM292200 36005KT P6SM OVC013
     FM300500 34004KT 6SM BR OVC007=

USA.gov is the U.S. government's official web portal to all federal, state and local government web resources and services.